Time;durP1;ratioP1;P1;durP2;ratioP2;P2;SDS_P1;SDS_P2;PMS_P1;PMS_P2;Temp;Humidity;BMP_temperature;BMP_pressure;BME280_temperature;BME280_humidity;BME280_pressure;Samples;Min_cycle;Max_cycle;Signal;HPM_P1;HPM_P2
2023/07/05 00:01:53;;;;;;;;;;;;;;;23.39;28.42;97833.22;4899775;29;1976;-75
2023/07/05 00:04:19;;;;;;;;;;;;;;;23.29;28.78;97835.19;4884191;29;1211;-74
2023/07/05 00:06:44;;;;;;;;;;;;;;;23.26;28.77;97841.81;4884104;29;1061;-75
2023/07/05 00:09:10;;;;;;;;;;;;;;;23.33;28.67;97835.88;4915274;29;1564;-75
2023/07/05 00:11:35;;;;;;;;;;;;;;;23.38;28.67;97828.81;4956664;29;1074;-75
2023/07/05 00:14:01;;;;;;;;;;;;;;;22.96;29.38;97831.94;4924916;29;1356;-75
2023/07/05 00:16:26;;;;;;;;;;;;;;;23.35;28.66;97827.69;4925144;29;957;-75
2023/07/05 00:18:52;;;;;;;;;;;;;;;22.96;29.31;97828.31;4953615;28;1486;-75
2023/07/05 00:21:17;;;;;;;;;;;;;;;23.16;28.96;97831.63;4944037;28;1902;-75
2023/07/05 00:23:44;;;;;;;;;;;;;;;23.26;28.60;97829.66;4959329;28;992;-75
2023/07/05 00:26:09;;;;;;;;;;;;;;;23.15;28.97;97835.72;4944141;28;1006;-75
2023/07/05 00:28:35;;;;;;;;;;;;;;;23.05;29.14;97836.88;4951526;28;1337;-74
2023/07/05 00:31:00;;;;;;;;;;;;;;;23.01;29.27;97831.34;4902860;29;1145;-75
2023/07/05 00:33:26;;;;;;;;;;;;;;;23.21;28.73;97828.22;4918244;29;1243;-76
2023/07/05 00:35:52;;;;;;;;;;;;;;;23.22;28.74;97835.47;4899159;29;1231;-75
2023/07/05 00:38:18;;;;;;;;;;;;;;;22.97;28.91;97829.88;4886259;29;1484;-75
2023/07/05 00:40:43;;;;;;;;;;;;;;;22.93;29.23;97829.19;4902644;29;1967;-75
2023/07/05 00:43:09;;;;;;;;;;;;;;;23.20;28.61;97832.28;4917923;29;970;-75
2023/07/05 00:45:50;;;;;;;;;;;;;;;23.21;28.92;97831.06;4917832;29;1216;-75
2023/07/05 00:48:17;;;;;;;;;;;;;;;23.42;28.27;97828.69;4917036;29;1350;-74
2023/07/05 00:50:43;;;;;;;;;;;;;;;23.03;29.14;97816.69;4902107;29;1222;-76
2023/07/05 00:53:09;;;;;;;;;;;;;;;23.21;28.71;97813.19;4917685;29;1039;-75
2023/07/05 00:55:34;;;;;;;;;;;;;;;23.11;28.92;97812.34;4898955;29;1228;-75
2023/07/05 00:58:00;;;;;;;;;;;;;;;23.18;28.66;97809.25;4882871;29;1459;-75
2023/07/05 01:00:26;;;;;;;;;;;;;;;23.14;28.77;97808.59;4883236;29;1899;-76
2023/07/05 01:02:55;;;;;;;;;;;;;;;23.13;28.83;97818.34;4885561;29;1324;-76
2023/07/05 01:05:20;;;;;;;;;;;;;;;23.25;28.51;97811.81;4883262;29;969;-75
2023/07/05 01:07:46;;;;;;;;;;;;;;;23.19;28.76;97813.66;4908317;29;1529;-75
2023/07/05 01:10:22;;;;;;;;;;;;;;;23.01;28.99;97820.00;4920155;29;1056;-75
2023/07/05 01:13:26;;;;;;;;;;;;;;;23.31;28.33;97810.00;4920731;29;1001;-75
2023/07/05 01:16:02;;;;;;;;;;;;;;;23.02;28.49;97815.09;4882784;29;891;-75
2023/07/05 01:18:29;;;;;;;;;;;;;;;23.01;28.78;97819.19;4894207;29;1374;-75
2023/07/05 01:21:01;;;;;;;;;;;;;;;23.22;28.19;97815.59;4917159;29;1989;-76
2023/07/05 01:23:28;;;;;;;;;;;;;;;23.15;28.30;97807.31;4886068;29;1178;-74
2023/07/05 01:26:12;;;;;;;;;;;;;;;23.24;28.20;97803.78;4917194;29;1063;-76
2023/07/05 01:28:37;;;;;;;;;;;;;;;22.83;28.75;97819.78;4868953;29;1449;-75
2023/07/05 01:31:15;;;;;;;;;;;;;;;23.14;28.55;97829.25;4898448;29;987;-75
2023/07/05 01:34:01;;;;;;;;;;;;;;;23.15;28.33;97818.69;4882422;29;1572;-75
2023/07/05 01:36:27;;;;;;;;;;;;;;;22.96;28.78;97817.75;4867701;29;1222;-75
2023/07/05 01:38:53;;;;;;;;;;;;;;;23.13;28.30;97821.19;4853145;29;1535;-75
2023/07/05 01:41:18;;;;;;;;;;;;;;;23.31;28.41;97814.84;4848997;29;1972;-75
2023/07/05 01:43:45;;;;;;;;;;;;;;;23.12;28.52;97820.41;4864430;29;1132;-75
2023/07/05 01:46:20;;;;;;;;;;;;;;;22.98;28.50;97820.09;4873844;29;1083;-74
2023/07/05 01:48:45;;;;;;;;;;;;;;;23.17;28.25;97810.50;4913747;29;1374;-74
2023/07/05 01:51:29;;;;;;;;;;;;;;;23.12;28.50;97813.94;4936177;29;973;-75
2023/07/05 01:54:00;;;;;;;;;;;;;;;23.23;28.21;97814.34;4920361;29;982;-75
2023/07/05 01:56:28;;;;;;;;;;;;;;;22.88;28.74;97822.84;4920339;29;931;-75
2023/07/05 01:58:54;;;;;;;;;;;;;;;23.16;28.50;97814.59;4912151;28;1493;-75
2023/07/05 02:01:19;;;;;;;;;;;;;;;23.16;28.63;97808.94;4927486;28;1899;-75
2023/07/05 02:03:46;;;;;;;;;;;;;;;22.96;28.67;97814.91;4943987;28;1244;-75
2023/07/05 02:06:12;;;;;;;;;;;;;;;23.14;28.63;97817.09;4959950;28;881;-75
2023/07/05 02:08:38;;;;;;;;;;;;;;;23.07;28.71;97811.69;4958738;28;1727;-75
2023/07/05 02:11:04;;;;;;;;;;;;;;;23.08;28.45;97807.59;4943633;28;1089;-75
2023/07/05 02:13:29;;;;;;;;;;;;;;;23.27;28.45;97815.00;4976461;28;1035;-74
2023/07/05 02:15:55;;;;;;;;;;;;;;;23.28;28.29;97821.47;4959321;28;891;-75
2023/07/05 02:18:20;;;;;;;;;;;;;;;23.08;28.78;97827.44;4975913;28;1442;-75
2023/07/05 02:20:46;;;;;;;;;;;;;;;23.28;28.47;97824.31;4960819;28;1903;-76
2023/07/05 02:23:12;;;;;;;;;;;;;;;23.06;28.65;97815.78;4931401;28;1411;-75
2023/07/05 02:25:38;;;;;;;;;;;;;;;23.09;28.57;97814.84;4963089;28;1122;-75
2023/07/05 02:28:07;;;;;;;;;;;;;;;23.04;28.71;97812.59;4962271;28;1543;-75
2023/07/05 02:30:36;;;;;;;;;;;;;;;23.28;28.25;97810.91;4980157;28;1019;-75
2023/07/05 02:33:01;;;;;;;;;;;;;;;23.13;28.63;97809.84;4946710;28;1409;-76
2023/07/05 02:35:27;;;;;;;;;;;;;;;23.33;27.85;97816.00;4966200;28;1132;-76
2023/07/05 02:37:55;;;;;;;;;;;;;;;23.11;28.29;97807.47;4980749;28;1494;-74
2023/07/05 02:40:21;;;;;;;;;;;;;;;23.26;28.39;97807.75;4980480;28;1976;-76
2023/07/05 02:42:46;;;;;;;;;;;;;;;22.89;28.51;97812.28;4981199;28;1509;-74
2023/07/05 02:45:12;;;;;;;;;;;;;;;23.22;28.07;97812.75;4965864;28;1684;-75
2023/07/05 02:47:37;;;;;;;;;;;;;;;22.63;29.08;97811.53;4954978;28;1506;-74
2023/07/05 02:50:03;;;;;;;;;;;;;;;22.97;28.63;97812.84;4946554;28;1136;-75
2023/07/05 02:52:28;;;;;;;;;;;;;;;23.24;28.02;97815.91;4980023;28;975;-74
2023/07/05 02:54:54;;;;;;;;;;;;;;;22.90;28.56;97818.75;4978325;28;1126;-75
2023/07/05 02:57:19;;;;;;;;;;;;;;;23.02;28.66;97815.09;4942260;29;1471;-75
2023/07/05 02:59:45;;;;;;;;;;;;;;;22.85;28.59;97811.63;4941678;29;967;-75
2023/07/05 03:02:10;;;;;;;;;;;;;;;23.04;28.26;97818.28;4957976;29;2040;-75
2023/07/05 03:04:37;;;;;;;;;;;;;;;23.46;27.91;97820.81;4958055;29;1077;-74
2023/07/05 03:07:02;;;;;;;;;;;;;;;23.21;28.14;97811.19;4949479;28;1549;-75
2023/07/05 03:09:28;;;;;;;;;;;;;;;23.13;28.31;97821.19;4941753;29;1026;-75
2023/07/05 03:11:53;;;;;;;;;;;;;;;23.16;28.37;97831.63;4957928;29;1051;-75
2023/07/05 03:14:19;;;;;;;;;;;;;;;23.08;28.64;97821.78;4942043;29;998;-75
2023/07/05 03:16:47;;;;;;;;;;;;;;;23.24;28.20;97821.59;4935210;29;1503;-75
2023/07/05 03:19:12;;;;;;;;;;;;;;;22.77;29.10;97811.06;4957546;28;1460;-75
2023/07/05 03:21:40;;;;;;;;;;;;;;;23.30;28.35;97818.97;4938578;29;1918;-75
2023/07/05 03:24:06;;;;;;;;;;;;;;;23.03;28.71;97816.69;4954591;29;999;-75
2023/07/05 03:26:32;;;;;;;;;;;;;;;23.17;28.33;97816.19;4961708;28;1505;-75
2023/07/05 03:28:57;;;;;;;;;;;;;;;23.23;28.38;97817.19;4956239;28;941;-75
2023/07/05 03:31:23;;;;;;;;;;;;;;;23.16;28.50;97813.78;4976755;28;1069;-75
2023/07/05 03:33:48;;;;;;;;;;;;;;;23.23;28.55;97811.50;4960088;28;1258;-76
2023/07/05 03:36:15;;;;;;;;;;;;;;;23.28;28.31;97810.91;4946088;28;1550;-75
2023/07/05 03:38:40;;;;;;;;;;;;;;;23.09;28.38;97817.69;4960042;28;1233;-75
2023/07/05 03:41:07;;;;;;;;;;;;;;;23.05;28.60;97825.53;4964144;28;2258;-75
2023/07/05 03:43:35;;;;;;;;;;;;;;;23.01;28.79;97824.88;4963786;28;2046;-75
2023/07/05 03:46:01;;;;;;;;;;;;;;;22.99;28.63;97816.81;4922249;29;1082;-75
2023/07/05 03:48:27;;;;;;;;;;;;;;;23.23;28.21;97820.03;4921555;29;1511;-75
2023/07/05 03:50:56;;;;;;;;;;;;;;;23.08;28.57;97830.28;4922357;29;1037;-75
2023/07/05 03:53:21;;;;;;;;;;;;;;;23.00;28.67;97823.28;4922309;29;926;-74
2023/07/05 03:55:47;;;;;;;;;;;;;;;23.02;28.58;97820.78;4922070;29;1012;-74
2023/07/05 03:58:12;;;;;;;;;;;;;;;23.13;28.31;97815.50;4937680;29;904;-74
2023/07/05 04:00:38;;;;;;;;;;;;;;;23.11;28.58;97818.81;4921987;29;1910;-76
2023/07/05 04:03:03;;;;;;;;;;;;;;;22.90;28.72;97813.91;4937820;29;1019;-75
2023/07/05 04:05:29;;;;;;;;;;;;;;;23.00;29.04;97817.59;4938280;29;994;-76
2023/07/05 04:07:54;;;;;;;;;;;;;;;23.10;28.43;97813.59;4906821;29;1345;-76
2023/07/05 04:10:20;;;;;;;;;;;;;;;23.26;28.39;97802.06;4922634;29;992;-76
2023/07/05 04:12:45;;;;;;;;;;;;;;;23.20;28.25;97809.56;4938503;29;922;-75
2023/07/05 04:15:11;;;;;;;;;;;;;;;23.06;28.50;97804.44;4938140;29;1097;-76
2023/07/05 04:17:36;;;;;;;;;;;;;;;23.07;28.51;97800.34;4955481;28;1123;-75
2023/07/05 04:20:03;;;;;;;;;;;;;;;22.93;28.82;97812.97;4980645;28;1926;-75
2023/07/05 04:22:31;;;;;;;;;;;;;;;23.03;28.81;97811.00;4965194;28;1283;-75
2023/07/05 04:24:57;;;;;;;;;;;;;;;23.16;28.41;97808.13;4980976;28;961;-75
2023/07/05 04:27:22;;;;;;;;;;;;;;;22.92;28.97;97802.09;4980962;28;1029;-76
2023/07/05 04:29:48;;;;;;;;;;;;;;;23.08;28.86;97808.38;4980279;28;821;-75
2023/07/05 04:32:14;;;;;;;;;;;;;;;23.13;28.79;97815.50;4980928;28;897;-76
2023/07/05 04:34:40;;;;;;;;;;;;;;;22.80;29.06;97807.31;4980211;28;1110;-75
2023/07/05 04:37:06;;;;;;;;;;;;;;;23.33;28.23;97804.66;4980669;28;1004;-75
2023/07/05 04:39:32;;;;;;;;;;;;;;;23.12;28.63;97799.75;4997857;28;863;-76
2023/07/05 04:41:57;;;;;;;;;;;;;;;23.17;28.63;97810.50;4980568;28;1969;-76
2023/07/05 04:44:23;;;;;;;;;;;;;;;23.25;28.41;97805.34;4979137;28;876;-75
2023/07/05 04:46:48;;;;;;;;;;;;;;;23.03;28.67;97814.63;4980123;28;871;-76
2023/07/05 04:49:14;;;;;;;;;;;;;;;22.99;28.66;97813.19;4979814;28;799;-75
2023/07/05 04:51:39;;;;;;;;;;;;;;;23.15;28.73;97810.16;4997232;28;842;-76
2023/07/05 04:54:05;;;;;;;;;;;;;;;23.23;28.64;97817.19;4979939;28;1183;-76
2023/07/05 04:56:30;;;;;;;;;;;;;;;23.25;28.30;97817.50;4997296;28;897;-75
2023/07/05 04:58:56;;;;;;;;;;;;;;;23.19;28.45;97810.84;4996775;28;974;-76
2023/07/05 05:01:22;;;;;;;;;;;;;;;23.15;28.67;97818.69;4975694;28;1971;-76
2023/07/05 05:03:47;;;;;;;;;;;;;;;22.95;29.17;97815.34;4975213;28;879;-76
2023/07/05 05:06:13;;;;;;;;;;;;;;;23.12;28.63;97819.63;4960605;28;965;-77
2023/07/05 05:08:38;;;;;;;;;;;;;;;23.12;28.90;97813.94;4943685;28;1101;-77
2023/07/05 05:11:04;;;;;;;;;;;;;;;23.12;28.70;97808.25;4944005;28;1252;-77
2023/07/05 05:13:31;;;;;;;;;;;;;;;23.13;28.69;97816.31;4943497;28;1124;-77
2023/07/05 05:15:56;;;;;;;;;;;;;;;23.23;28.57;97811.50;4921750;29;1287;-77
2023/07/05 05:18:22;;;;;;;;;;;;;;;23.19;28.59;97819.34;4936808;29;1006;-77
2023/07/05 05:20:48;;;;;;;;;;;;;;;22.91;29.29;97814.69;4937974;29;1894;-77
2023/07/05 05:23:13;;;;;;;;;;;;;;;23.16;28.63;97819.47;4937289;29;1127;-78
2023/07/05 05:25:42;;;;;;;;;;;;;;;23.17;28.94;97830.38;4937423;29;1018;-78
2023/07/05 05:28:07;;;;;;;;;;;;;;;23.16;28.71;97825.97;4956213;29;1214;-77
2023/07/05 05:30:34;;;;;;;;;;;;;;;23.13;28.70;97824.81;4940741;29;1238;-77
2023/07/05 05:33:00;;;;;;;;;;;;;;;23.20;28.82;97820.13;4941423;29;899;-77
2023/07/05 05:35:27;;;;;;;;;;;;;;;23.19;28.82;97813.66;4920976;29;1312;-76
2023/07/05 05:37:53;;;;;;;;;;;;;;;23.24;28.65;97823.66;4936847;29;819;-78
2023/07/05 05:40:18;;;;;;;;;;;;;;;23.30;28.61;97814.06;4901955;29;1966;-78
2023/07/05 05:42:44;;;;;;;;;;;;;;;23.23;28.79;97814.34;4886721;29;809;-77
2023/07/05 05:45:10;;;;;;;;;;;;;;;23.28;28.89;97813.75;4902285;29;1035;-77
2023/07/05 05:47:35;;;;;;;;;;;;;;;23.09;29.26;97820.53;4902820;29;965;-77
2023/07/05 05:50:01;;;;;;;;;;;;;;;23.20;29.04;97809.56;4902431;29;1014;-77
2023/07/05 05:52:27;;;;;;;;;;;;;;;23.29;28.88;97812.50;4901884;29;1084;-77
2023/07/05 05:54:52;;;;;;;;;;;;;;;23.27;28.69;97825.56;4918398;29;1001;-77
2023/07/05 05:57:18;;;;;;;;;;;;;;;23.16;29.23;97820.28;4907820;29;1011;-77
2023/07/05 05:59:43;;;;;;;;;;;;;;;23.11;29.06;97813.16;4936573;29;977;-77
2023/07/05 06:02:09;;;;;;;;;;;;;;;23.36;29.59;97817.09;4941254;29;2000;-79
2023/07/05 06:04:34;;;;;;;;;;;;;;;23.13;29.78;97815.50;4925527;29;950;-79
2023/07/05 06:07:00;;;;;;;;;;;;;;;23.11;29.79;97820.88;4925621;29;1095;-79
2023/07/05 06:09:25;;;;;;;;;;;;;;;23.28;29.37;97810.13;4925006;29;1109;-80
2023/07/05 06:11:51;;;;;;;;;;;;;;;23.14;29.49;97828.44;4937709;28;946;-79
2023/07/05 06:14:16;;;;;;;;;;;;;;;23.14;29.74;97819.94;4963225;28;878;-80
2023/07/05 06:16:42;;;;;;;;;;;;;;;23.34;29.18;97816.78;4963248;28;894;-79
2023/07/05 06:19:07;;;;;;;;;;;;;;;23.20;29.65;97812.41;4947461;28;768;-79
2023/07/05 06:21:33;;;;;;;;;;;;;;;22.99;29.79;97821.69;4947224;28;1914;-79
2023/07/05 06:23:58;;;;;;;;;;;;;;;23.19;29.66;97813.66;4962679;28;952;-79
2023/07/05 06:26:24;;;;;;;;;;;;;;;23.27;29.22;97820.69;4963150;28;1112;-79
2023/07/05 06:28:49;;;;;;;;;;;;;;;23.13;29.56;97826.88;4980377;28;955;-79
2023/07/05 06:31:16;;;;;;;;;;;;;;;23.35;29.19;97819.16;4967748;28;1086;-79
2023/07/05 06:33:41;;;;;;;;;;;;;;;23.20;29.55;97820.13;5001009;28;1044;-79
2023/07/05 06:36:07;;;;;;;;;;;;;;;23.01;30.02;97819.19;5000841;28;1074;-79
2023/07/05 06:38:32;;;;;;;;;;;;;;;23.14;29.60;97817.09;5000079;28;834;-79
2023/07/05 06:40:58;;;;;;;;;;;;;;;23.17;29.43;97807.69;5000994;28;1919;-79
2023/07/05 06:43:24;;;;;;;;;;;;;;;23.20;29.72;97825.81;5000426;28;935;-80
2023/07/05 06:45:50;;;;;;;;;;;;;;;23.10;29.72;97822.09;4983491;28;831;-79
2023/07/05 06:48:15;;;;;;;;;;;;;;;23.49;28.98;97820.69;4982916;28;1014;-79
2023/07/05 06:50:41;;;;;;;;;;;;;;;23.52;29.26;97830.31;4982707;28;835;-79
2023/07/05 06:53:06;;;;;;;;;;;;;;;23.28;29.70;97821.47;4982897;28;843;-79
2023/07/05 06:55:32;;;;;;;;;;;;;;;23.07;29.80;97823.03;4982882;28;908;-79
2023/07/05 06:57:57;;;;;;;;;;;;;;;23.22;30.74;97821.28;4939348;29;972;-69
2023/07/05 07:00:23;;;;;;;;;;;;;;;23.82;32.92;97821.06;4938612;29;1911;-69
2023/07/05 07:02:49;;;;;;;;;;;;;;;23.87;34.54;97823.31;4924911;29;907;-82
2023/07/05 07:05:17;;;;;;;;;;;;;;;23.63;34.01;97819.41;4942166;29;791;-82
2023/07/05 07:07:43;;;;;;;;;;;;;;;23.90;33.02;97822.41;4909282;29;879;-82
2023/07/05 07:10:08;;;;;;;;;;;;;;;23.65;32.88;97822.56;4942103;29;717;-82
2023/07/05 07:12:34;;;;;;;;;;;;;;;23.70;32.32;97819.13;4926315;29;1198;-82
2023/07/05 07:14:59;;;;;;;;;;;;;;;23.47;32.22;97826.06;4941114;29;852;-81
2023/07/05 07:17:25;;;;;;;;;;;;;;;23.69;31.71;97820.38;4941218;29;977;-81
2023/07/05 07:19:51;;;;;;;;;;;;;;;23.53;31.72;97829.09;4922322;29;1199;-80
2023/07/05 07:22:16;;;;;;;;;;;;;;;23.51;31.62;97823.06;4888251;29;1981;-81
2023/07/05 07:24:42;;;;;;;;;;;;;;;23.51;31.34;97823.06;4903296;29;1203;-80
2023/07/05 07:27:08;;;;;;;;;;;;;;;23.66;30.82;97829.81;4888020;29;900;-80
2023/07/05 07:29:34;;;;;;;;;;;;;;;23.59;31.03;97824.38;4917648;29;790;-81
2023/07/05 07:32:03;;;;;;;;;;;;;;;23.56;31.10;97825.31;4892176;29;874;-81
2023/07/05 07:34:31;;;;;;;;;;;;;;;23.57;30.64;97829.72;4865715;29;1054;-81
2023/07/05 07:36:56;;;;;;;;;;;;;;;23.69;30.54;97828.91;4865013;29;864;-79
2023/07/05 07:39:22;;;;;;;;;;;;;;;23.40;30.91;97827.09;4849018;29;971;-78
2023/07/05 07:41:47;;;;;;;;;;;;;;;23.56;30.57;97825.31;4864850;29;1915;-79
2023/07/05 07:44:13;;;;;;;;;;;;;;;23.65;30.27;97833.94;4864361;29;929;-79
2023/07/05 07:46:39;;;;;;;;;;;;;;;23.57;30.52;97832.56;4862584;29;791;-79
2023/07/05 07:49:05;;;;;;;;;;;;;;;23.61;30.15;97833.22;4848697;29;913;-79
2023/07/05 07:51:31;;;;;;;;;;;;;;;23.57;30.38;97833.38;4833918;29;876;-79
2023/07/05 07:53:57;;;;;;;;;;;;;;;23.61;30.32;97836.06;4863026;29;1223;-78
2023/07/05 07:56:23;;;;;;;;;;;;;;;23.68;30.07;97830.16;4891413;29;808;-78
2023/07/05 07:58:49;;;;;;;;;;;;;;;23.51;30.27;97837.25;4923398;29;780;-79
2023/07/05 08:01:19;;;;;;;;;;;;;;;23.72;30.22;97833.63;4923397;29;1926;-78
2023/07/05 08:03:45;;;;;;;;;;;;;;;23.84;29.82;97829.94;4920272;29;1298;-78
2023/07/05 08:06:10;;;;;;;;;;;;;;;23.86;29.93;97832.31;4951393;29;956;-78
2023/07/05 08:08:37;;;;;;;;;;;;;;;23.82;29.84;97832.44;4942391;29;887;-78
2023/07/05 08:11:02;;;;;;;;;;;;;;;23.83;30.23;97839.75;4943389;29;732;-78
2023/07/05 08:13:29;;;;;;;;;;;;;;;23.83;29.98;97834.06;4958365;29;890;-78
2023/07/05 08:15:55;;;;;;;;;;;;;;;23.94;29.72;97838.53;4927248;29;764;-78
2023/07/05 08:18:21;;;;;;;;;;;;;;;23.99;29.63;97832.25;4974212;28;1302;-78
2023/07/05 08:20:46;;;;;;;;;;;;;;;23.88;30.13;97836.28;4942833;29;1918;-78
2023/07/05 08:23:13;;;;;;;;;;;;;;;23.95;30.07;97825.91;4958281;29;855;-78
2023/07/05 08:25:42;;;;;;;;;;;;;;;24.02;29.78;97831.28;4927557;29;1064;-78
2023/07/05 08:28:08;;;;;;;;;;;;;;;24.13;29.46;97829.59;4958187;29;897;-78
2023/07/05 08:30:34;;;;;;;;;;;;;;;24.05;29.99;97838.91;4942982;29;1142;-78
2023/07/05 08:32:59;;;;;;;;;;;;;;;24.32;29.32;97826.84;4942148;29;995;-78
2023/07/05 08:35:25;;;;;;;;;;;;;;;24.15;29.84;97832.78;4990526;28;1115;-78
2023/07/05 08:37:50;;;;;;;;;;;;;;;24.05;29.99;97838.91;4999043;28;865;-78
2023/07/05 08:40:16;;;;;;;;;;;;;;;24.19;29.50;97826.97;4965956;28;1910;-78
2023/07/05 08:42:51;;;;;;;;;;;;;;;24.05;29.83;97834.00;4999111;28;918;-71
2023/07/05 08:45:19;;;;;;;;;;;;;;;24.06;30.13;97834.81;4981533;28;890;-77
2023/07/05 08:47:49;;;;;;;;;;;;;;;23.99;30.26;97829.41;4998078;28;841;-78
2023/07/05 08:50:20;;;;;;;;;;;;;;;24.11;30.08;97831.34;4981455;28;1075;-77
2023/07/05 08:52:46;;;;;;;;;;;;;;;24.06;29.78;97835.59;4980981;28;728;-77
2023/07/05 08:55:14;;;;;;;;;;;;;;;23.95;30.09;97838.06;4964742;28;1267;-78
2023/07/05 08:57:55;;;;;;;;;;;;;;;23.78;30.52;97836.72;4980898;28;886;-78
2023/07/05 09:00:47;;;;;;;;;;;;;;;23.89;30.19;97826.50;4980644;28;1902;-79
2023/07/05 09:03:12;;;;;;;;;;;;;;;23.85;30.19;97833.59;4918759;29;976;-78
2023/07/05 09:05:48;;;;;;;;;;;;;;;23.85;30.37;97825.84;4887024;29;1207;-78
2023/07/05 09:08:13;;;;;;;;;;;;;;;23.56;30.64;97830.97;4886589;29;1221;-78
2023/07/05 09:11:01;;;;;;;;;;;;;;;23.63;30.30;97827.94;4902057;29;1216;-80
2023/07/05 09:16:17;;;;;;;;;;;;;;;23.80;32.30;97829.28;5046593;23;2349;-79
2023/07/05 09:18:48;;;;;;;;;;;;;;;24.40;32.65;97820.44;5172406;22;3746;-77
2023/07/05 09:24:24;;;;;;;;;;;;;;;25.13;34.09;97821.91;4956603;28;1474;-78
2023/07/05 09:27:01;;;;;;;;;;;;;;;25.18;34.99;97816.34;5115037;23;3815;-76
2023/07/05 09:29:26;;;;;;;;;;;;;;;25.17;35.33;97817.63;4976883;28;842;-77
2023/07/05 09:31:52;;;;;;;;;;;;;;;24.62;35.50;97819.56;4977932;28;1235;-79
2023/07/05 09:34:18;;;;;;;;;;;;;;;24.04;34.61;97814.59;4977668;28;1147;-79
2023/07/05 09:36:43;;;;;;;;;;;;;;;23.35;34.07;97815.53;4978684;28;1023;-78
2023/07/05 09:39:30;;;;;;;;;;;;;;;22.86;33.99;97822.50;4960344;28;1346;-79
2023/07/05 09:41:56;;;;;;;;;;;;;;;22.83;32.66;97820.56;4944495;28;1914;-79
2023/07/05 09:44:22;;;;;;;;;;;;;;;23.14;32.22;97828.44;4944272;28;1176;-78
2023/07/05 09:46:47;;;;;;;;;;;;;;;23.19;31.64;97808.00;4944782;28;1312;-79
2023/07/05 09:49:13;;;;;;;;;;;;;;;23.37;30.66;97808.16;4944223;28;1311;-78
2023/07/05 09:51:44;;;;;;;;;;;;;;;23.19;30.27;97813.66;4937837;29;891;-78
2023/07/05 09:54:29;;;;;;;;;;;;;;;23.25;29.92;97813.88;4921308;29;1151;-79
2023/07/05 09:56:57;;;;;;;;;;;;;;;23.26;29.09;97819.09;4921915;29;1227;-79
2023/07/05 09:59:23;;;;;;;;;;;;;;;23.04;29.27;97823.94;4937954;29;880;-81
2023/07/05 10:01:53;;;;;;;;;;;;;;;23.11;28.77;97807.47;4938084;29;1993;-79
2023/07/05 10:04:19;;;;;;;;;;;;;;;23.34;27.85;97808.28;4937394;29;831;-78
2023/07/05 10:06:46;;;;;;;;;;;;;;;22.98;28.27;97820.91;4938583;29;918;-79
2023/07/05 10:09:13;;;;;;;;;;;;;;;22.98;28.35;97811.59;4937206;29;1212;-79
2023/07/05 10:11:42;;;;;;;;;;;;;;;23.08;27.51;97819.72;4937841;29;960;-78
2023/07/05 10:14:12;;;;;;;;;;;;;;;22.82;28.00;97807.63;4921644;29;1066;-78
2023/07/05 10:16:49;;;;;;;;;;;;;;;23.03;27.60;97805.34;4916329;29;916;-79
2023/07/05 10:19:38;;;;;;;;;;;;;;;23.19;27.05;97802.31;4919268;29;971;-79
2023/07/05 10:22:21;;;;;;;;;;;;;;;23.38;26.64;97798.38;4927628;29;1966;-78
2023/07/05 10:24:48;;;;;;;;;;;;;;;23.24;27.09;97809.44;4956610;29;898;-79
2023/07/05 10:27:13;;;;;;;;;;;;;;;23.03;27.04;97816.69;4923617;29;1379;-79
2023/07/05 10:29:39;;;;;;;;;;;;;;;23.00;26.97;97807.06;4952932;29;968;-77
2023/07/05 10:32:10;;;;;;;;;;;;;;;23.40;26.64;97809.25;4953485;29;890;-79
2023/07/05 10:34:35;;;;;;;;;;;;;;;23.07;26.82;97794.66;4953421;29;1552;-80
2023/07/05 10:37:03;;;;;;;;;;;;;;;23.30;26.65;97797.03;4919739;29;1191;-81
2023/07/05 10:39:29;;;;;;;;;;;;;;;23.14;26.80;97805.75;4935210;29;1173;-79
2023/07/05 10:41:55;;;;;;;;;;;;;;;23.42;26.35;97805.97;4919815;29;1988;-78
2023/07/05 10:44:27;;;;;;;;;;;;;;;23.02;26.75;97807.38;4921317;29;1061;-78
2023/07/05 10:46:53;;;;;;;;;;;;;;;22.96;26.85;97805.59;4938487;29;845;-79
2023/07/05 10:49:19;;;;;;;;;;;;;;;23.17;26.85;97816.19;4902532;29;898;-79
2023/07/05 10:51:55;;;;;;;;;;;;;;;23.35;26.37;97807.00;4902799;29;897;-79
2023/07/05 10:54:41;;;;;;;;;;;;;;;23.07;26.92;97806.00;4903595;29;1147;-81
2023/07/05 10:57:15;;;;;;;;;;;;;;;23.26;26.83;97807.75;4905356;29;900;-80
2023/07/05 10:59:45;;;;;;;;;;;;;;;23.18;27.11;97809.25;4921954;29;940;-79
2023/07/05 11:02:29;;;;;;;;;;;;;;;23.14;27.08;97811.41;4922448;29;1915;-81
2023/07/05 11:04:55;;;;;;;;;;;;;;;23.24;27.06;97804.56;4906963;29;1255;-80
2023/07/05 11:07:20;;;;;;;;;;;;;;;23.40;26.70;97809.25;4906778;29;913;-80
2023/07/05 11:09:46;;;;;;;;;;;;;;;23.33;27.09;97806.69;4922422;29;931;-81
2023/07/05 11:12:17;;;;;;;;;;;;;;;23.34;26.85;97806.22;4922660;29;724;-80
2023/07/05 11:14:43;;;;;;;;;;;;;;;23.09;27.45;97809.97;4945527;29;864;-80
2023/07/05 11:17:32;;;;;;;;;;;;;;;23.25;27.37;97811.81;4961399;29;1139;-80
2023/07/05 11:19:57;;;;;;;;;;;;;;;23.18;27.29;97814.94;4887229;29;882;-80
2023/07/05 11:22:39;;;;;;;;;;;;;;;23.40;26.95;97817.78;4903093;29;1902;-80
2023/07/05 11:25:06;;;;;;;;;;;;;;;23.26;27.08;97802.06;4902358;29;1319;-81
2023/07/05 11:27:35;;;;;;;;;;;;;;;23.08;27.32;97807.59;4883816;29;1264;-80
2023/07/05 11:30:00;;;;;;;;;;;;;;;22.97;27.56;97807.19;4884052;29;868;-80
2023/07/05 11:32:27;;;;;;;;;;;;;;;23.31;27.29;97810.00;4884994;29;972;-80
2023/07/05 11:34:53;;;;;;;;;;;;;;;23.21;27.27;97805.50;4884049;29;828;-80
2023/07/05 11:37:19;;;;;;;;;;;;;;;23.15;27.38;97807.31;4884680;29;1114;-80
2023/07/05 11:39:51;;;;;;;;;;;;;;;23.21;27.32;97799.81;4884201;29;1249;-80
2023/07/05 11:42:20;;;;;;;;;;;;;;;23.05;27.61;97797.16;4884228;29;1911;-80
2023/07/05 11:44:47;;;;;;;;;;;;;;;22.86;27.91;97805.47;4883553;29;1062;-81
2023/07/05 11:47:24;;;;;;;;;;;;;;;23.35;26.83;97804.97;4869118;29;922;-80
2023/07/05 11:49:59;;;;;;;;;;;;;;;23.12;27.10;97796.91;4883860;29;949;-80
2023/07/05 11:52:29;;;;;;;;;;;;;;;23.04;27.33;97795.56;4884201;29;930;-80
2023/07/05 11:55:13;;;;;;;;;;;;;;;22.94;27.39;97779.72;4880204;29;1387;-81
2023/07/05 11:57:41;;;;;;;;;;;;;;;22.85;27.73;97789.72;4925630;29;1317;-80
2023/07/05 12:00:10;;;;;;;;;;;;;;;23.28;26.95;97788.19;4937776;29;973;-81
2023/07/05 12:02:44;;;;;;;;;;;;;;;22.91;27.74;97784.28;4937448;29;1911;-81
2023/07/05 12:05:11;;;;;;;;;;;;;;;23.21;27.08;97782.78;4932477;29;830;-81
2023/07/05 12:07:37;;;;;;;;;;;;;;;23.14;27.04;97783.03;4956732;29;1296;-80
2023/07/05 12:10:02;;;;;;;;;;;;;;;23.17;27.09;97782.13;4921397;29;932;-80
2023/07/05 12:12:28;;;;;;;;;;;;;;;23.19;26.96;97796.63;4937581;29;1227;-81
2023/07/05 12:14:53;;;;;;;;;;;;;;;23.15;26.89;97776.09;4939890;29;1143;-81
2023/07/05 12:17:21;;;;;;;;;;;;;;;23.42;26.70;97781.22;4924880;29;1227;-80
2023/07/05 12:19:46;;;;;;;;;;;;;;;23.15;27.30;97773.25;4924126;29;1249;-80
2023/07/05 12:22:17;;;;;;;;;;;;;;;23.21;27.04;97768.59;4924171;29;1895;-80
2023/07/05 12:24:44;;;;;;;;;;;;;;;23.16;26.90;97763.53;4923867;29;820;-80
2023/07/05 12:27:16;;;;;;;;;;;;;;;23.18;27.30;97766.69;4924871;29;1158;-80
2023/07/05 12:29:42;;;;;;;;;;;;;;;23.25;26.86;97755.06;4924328;29;941;-80
2023/07/05 12:32:14;;;;;;;;;;;;;;;23.07;27.26;97758.56;4932868;29;924;-81
2023/07/05 12:34:40;;;;;;;;;;;;;;;23.00;27.22;97755.16;4959239;29;956;-80
2023/07/05 12:37:05;;;;;;;;;;;;;;;23.26;27.02;97756.66;4959874;29;752;-81
2023/07/05 12:39:31;;;;;;;;;;;;;;;23.24;26.80;97759.16;4942983;29;1143;-80
2023/07/05 12:41:59;;;;;;;;;;;;;;;23.13;27.24;97750.25;4959772;29;1911;-81
2023/07/05 12:44:25;;;;;;;;;;;;;;;22.92;27.62;97751.03;4973675;28;1226;-80
2023/07/05 12:46:50;;;;;;;;;;;;;;;23.01;27.14;97743.38;4960642;28;1184;-81
2023/07/05 12:52:58;;;;;;;;;;;;;;;23.25;27.21;97743.69;4941759;29;657;-80
2023/07/05 12:55:25;;;;;;;;;;;;;;;22.99;27.41;97737.34;4924799;29;1143;-79
2023/07/05 12:57:52;;;;;;;;;;;;;;;23.20;27.15;97732.94;4939834;29;728;-79
2023/07/05 13:00:19;;;;;;;;;;;;;;;23.23;27.10;97732.03;4940291;29;1327;-79
2023/07/05 13:02:45;;;;;;;;;;;;;;;23.20;27.00;97730.09;4940714;29;1957;-81
2023/07/05 13:05:11;;;;;;;;;;;;;;;23.29;26.88;97718.81;4939415;29;1149;-82
2023/07/05 13:07:39;;;;;;;;;;;;;;;23.22;27.13;97726.81;4940497;29;803;-81
2023/07/05 13:10:08;;;;;;;;;;;;;;;23.04;27.12;97730.31;4939334;29;854;-80
2023/07/05 13:12:50;;;;;;;;;;;;;;;23.02;27.27;97724.31;4939691;29;904;-80